sensor_id;sensor_type;location;lat;lon;timestamp;temperature;humidity
36652;DHT22;53334;51.976;20.144;2023-07-13T00:02:07;26.80;49.40
36652;DHT22;53334;51.976;20.144;2023-07-13T00:04:41;26.80;49.40
36652;DHT22;53334;51.976;20.144;2023-07-13T00:07:15;26.80;49.40
36652;DHT22;53334;51.976;20.144;2023-07-13T00:09:51;26.80;49.40
36652;DHT22;53334;51.976;20.144;2023-07-13T00:12:28;26.80;49.40
36652;DHT22;53334;51.976;20.144;2023-07-13T00:15:05;26.80;49.40
36652;DHT22;53334;51.976;20.144;2023-07-13T00:17:39;26.80;49.40
36652;DHT22;53334;51.976;20.144;2023-07-13T00:20:13;26.80;49.40
36652;DHT22;53334;51.976;20.144;2023-07-13T00:22:46;26.80;49.40
36652;DHT22;53334;51.976;20.144;2023-07-13T00:25:20;26.80;49.40
36652;DHT22;53334;51.976;20.144;2023-07-13T00:27:55;26.80;49.40
36652;DHT22;53334;51.976;20.144;2023-07-13T00:30:28;26.70;49.30
36652;DHT22;53334;51.976;20.144;2023-07-13T00:33:02;26.80;49.40
36652;DHT22;53334;51.976;20.144;2023-07-13T00:35:49;26.70;49.40
36652;DHT22;53334;51.976;20.144;2023-07-13T00:38:23;26.80;49.40
36652;DHT22;53334;51.976;20.144;2023-07-13T00:40:56;26.70;49.40
36652;DHT22;53334;51.976;20.144;2023-07-13T00:43:31;26.80;49.40
36652;DHT22;53334;51.976;20.144;2023-07-13T00:46:21;26.70;49.40
36652;DHT22;53334;51.976;20.144;2023-07-13T00:48:57;26.80;49.40
36652;DHT22;53334;51.976;20.144;2023-07-13T00:51:36;26.70;49.40
36652;DHT22;53334;51.976;20.144;2023-07-13T00:54:12;26.80;49.40
36652;DHT22;53334;51.976;20.144;2023-07-13T00:56:49;26.70;49.40
36652;DHT22;53334;51.976;20.144;2023-07-13T00:59:25;26.80;50.00
36652;DHT22;53334;51.976;20.144;2023-07-13T01:01:59;26.80;49.40
36652;DHT22;53334;51.976;20.144;2023-07-13T01:04:32;26.80;49.50
36652;DHT22;53334;51.976;20.144;2023-07-13T01:07:06;26.80;49.40
36652;DHT22;53334;51.976;20.144;2023-07-13T01:09:40;26.70;49.40
36652;DHT22;53334;51.976;20.144;2023-07-13T01:12:13;26.80;49.50
36652;DHT22;53334;51.976;20.144;2023-07-13T01:14:48;26.70;49.40
36652;DHT22;53334;51.976;20.144;2023-07-13T01:17:21;26.80;49.50
36652;DHT22;53334;51.976;20.144;2023-07-13T01:19:55;26.70;49.40
36652;DHT22;53334;51.976;20.144;2023-07-13T01:22:29;26.80;49.50
36652;DHT22;53334;51.976;20.144;2023-07-13T01:25:05;26.80;49.50
36652;DHT22;53334;51.976;20.144;2023-07-13T01:27:38;26.80;49.50
36652;DHT22;53334;51.976;20.144;2023-07-13T01:30:14;26.80;49.50
36652;DHT22;53334;51.976;20.144;2023-07-13T01:32:47;26.70;49.50
36652;DHT22;53334;51.976;20.144;2023-07-13T01:35:21;26.80;49.50
36652;DHT22;53334;51.976;20.144;2023-07-13T01:37:55;26.70;49.50
36652;DHT22;53334;51.976;20.144;2023-07-13T01:40:29;26.80;49.50
36652;DHT22;53334;51.976;20.144;2023-07-13T01:43:03;26.80;49.50
36652;DHT22;53334;51.976;20.144;2023-07-13T01:45:37;26.80;49.50
36652;DHT22;53334;51.976;20.144;2023-07-13T01:48:10;26.80;49.50
36652;DHT22;53334;51.976;20.144;2023-07-13T01:50:44;26.80;49.50
36652;DHT22;53334;51.976;20.144;2023-07-13T01:53:19;26.70;49.50
36652;DHT22;53334;51.976;20.144;2023-07-13T01:55:52;26.70;49.50
36652;DHT22;53334;51.976;20.144;2023-07-13T01:58:26;26.80;49.50
36652;DHT22;53334;51.976;20.144;2023-07-13T02:00:59;26.70;49.50
36652;DHT22;53334;51.976;20.144;2023-07-13T02:03:32;26.70;49.50
36652;DHT22;53334;51.976;20.144;2023-07-13T02:06:06;26.70;49.50
36652;DHT22;53334;51.976;20.144;2023-07-13T02:08:41;26.80;49.50
36652;DHT22;53334;51.976;20.144;2023-07-13T02:11:15;26.80;49.60
36652;DHT22;53334;51.976;20.144;2023-07-13T02:13:48;26.80;49.60
36652;DHT22;53334;51.976;20.144;2023-07-13T02:16:21;26.80;49.60
36652;DHT22;53334;51.976;20.144;2023-07-13T02:18:55;26.80;49.60
36652;DHT22;53334;51.976;20.144;2023-07-13T02:21:28;26.80;49.60
36652;DHT22;53334;51.976;20.144;2023-07-13T02:24:04;26.80;49.60
36652;DHT22;53334;51.976;20.144;2023-07-13T02:26:37;26.80;49.60
36652;DHT22;53334;51.976;20.144;2023-07-13T02:29:11;26.80;49.60
36652;DHT22;53334;51.976;20.144;2023-07-13T02:31:44;26.80;49.60
36652;DHT22;53334;51.976;20.144;2023-07-13T02:34:17;26.80;49.60
36652;DHT22;53334;51.976;20.144;2023-07-13T02:36:51;26.80;49.60
36652;DHT22;53334;51.976;20.144;2023-07-13T02:39:25;26.80;49.60
36652;DHT22;53334;51.976;20.144;2023-07-13T02:41:59;26.80;49.60
36652;DHT22;53334;51.976;20.144;2023-07-13T02:44:32;26.80;49.60
36652;DHT22;53334;51.976;20.144;2023-07-13T02:47:06;26.80;49.60
36652;DHT22;53334;51.976;20.144;2023-07-13T02:49:39;26.70;49.50
36652;DHT22;53334;51.976;20.144;2023-07-13T02:52:12;26.70;49.50
36652;DHT22;53334;51.976;20.144;2023-07-13T02:54:47;26.70;49.50
36652;DHT22;53334;51.976;20.144;2023-07-13T02:57:21;26.70;49.60
36652;DHT22;53334;51.976;20.144;2023-07-13T02:59:54;26.70;49.60
36652;DHT22;53334;51.976;20.144;2023-07-13T03:02:28;26.70;49.60
36652;DHT22;53334;51.976;20.144;2023-07-13T03:05:02;26.70;49.50
36652;DHT22;53334;51.976;20.144;2023-07-13T03:07:36;26.70;49.60
36652;DHT22;53334;51.976;20.144;2023-07-13T03:10:11;26.70;49.60
36652;DHT22;53334;51.976;20.144;2023-07-13T03:12:50;26.80;49.60
36652;DHT22;53334;51.976;20.144;2023-07-13T03:15:28;26.80;49.60
36652;DHT22;53334;51.976;20.144;2023-07-13T03:18:03;26.80;49.60
36652;DHT22;53334;51.976;20.144;2023-07-13T03:20:37;26.80;49.60
36652;DHT22;53334;51.976;20.144;2023-07-13T03:23:10;26.80;49.60
36652;DHT22;53334;51.976;20.144;2023-07-13T03:25:45;26.80;49.60
36652;DHT22;53334;51.976;20.144;2023-07-13T03:28:18;26.70;49.50
36652;DHT22;53334;51.976;20.144;2023-07-13T03:30:59;26.80;49.70
36652;DHT22;53334;51.976;20.144;2023-07-13T03:33:33;26.80;49.70
36652;DHT22;53334;51.976;20.144;2023-07-13T03:36:09;26.80;49.60
36652;DHT22;53334;51.976;20.144;2023-07-13T03:38:43;26.70;49.60
36652;DHT22;53334;51.976;20.144;2023-07-13T03:41:18;26.80;49.60
36652;DHT22;53334;51.976;20.144;2023-07-13T03:43:53;26.70;49.60
36652;DHT22;53334;51.976;20.144;2023-07-13T03:46:29;26.80;49.60
36652;DHT22;53334;51.976;20.144;2023-07-13T03:49:03;26.80;49.70
36652;DHT22;53334;51.976;20.144;2023-07-13T03:51:37;26.80;49.70
36652;DHT22;53334;51.976;20.144;2023-07-13T03:54:11;26.70;49.60
36652;DHT22;53334;51.976;20.144;2023-07-13T03:56:45;26.70;49.60
36652;DHT22;53334;51.976;20.144;2023-07-13T03:59:20;26.80;49.70
36652;DHT22;53334;51.976;20.144;2023-07-13T04:01:53;26.80;49.70
36652;DHT22;53334;51.976;20.144;2023-07-13T04:04:27;26.80;49.70
36652;DHT22;53334;51.976;20.144;2023-07-13T04:07:00;26.70;49.60
36652;DHT22;53334;51.976;20.144;2023-07-13T04:09:34;26.70;49.60
36652;DHT22;53334;51.976;20.144;2023-07-13T04:12:09;26.80;49.70
36652;DHT22;53334;51.976;20.144;2023-07-13T04:14:42;26.80;49.70
36652;DHT22;53334;51.976;20.144;2023-07-13T04:17:15;26.80;49.70
36652;DHT22;53334;51.976;20.144;2023-07-13T04:19:49;26.80;49.70
36652;DHT22;53334;51.976;20.144;2023-07-13T04:22:22;26.80;49.70
36652;DHT22;53334;51.976;20.144;2023-07-13T04:24:55;26.80;49.70
36652;DHT22;53334;51.976;20.144;2023-07-13T04:27:30;26.70;49.60
36652;DHT22;53334;51.976;20.144;2023-07-13T04:30:04;26.80;49.70
36652;DHT22;53334;51.976;20.144;2023-07-13T04:32:38;26.80;49.70
36652;DHT22;53334;51.976;20.144;2023-07-13T04:35:11;26.80;49.70
36652;DHT22;53334;51.976;20.144;2023-07-13T04:37:46;26.80;49.70
36652;DHT22;53334;51.976;20.144;2023-07-13T04:40:21;26.70;49.60
36652;DHT22;53334;51.976;20.144;2023-07-13T04:42:56;26.70;49.60
36652;DHT22;53334;51.976;20.144;2023-07-13T04:45:29;26.80;49.70
36652;DHT22;53334;51.976;20.144;2023-07-13T04:48:04;26.80;49.70
36652;DHT22;53334;51.976;20.144;2023-07-13T04:50:38;26.80;49.70
36652;DHT22;53334;51.976;20.144;2023-07-13T04:53:11;26.80;49.70
36652;DHT22;53334;51.976;20.144;2023-07-13T04:55:45;26.80;49.70
36652;DHT22;53334;51.976;20.144;2023-07-13T04:58:20;26.80;49.70
36652;DHT22;53334;51.976;20.144;2023-07-13T05:00:58;26.80;49.70
36652;DHT22;53334;51.976;20.144;2023-07-13T05:03:33;26.80;49.70
36652;DHT22;53334;51.976;20.144;2023-07-13T05:06:08;26.80;49.70
36652;DHT22;53334;51.976;20.144;2023-07-13T05:08:42;26.70;49.60
36652;DHT22;53334;51.976;20.144;2023-07-13T05:11:18;26.70;49.70
36652;DHT22;53334;51.976;20.144;2023-07-13T05:13:53;26.80;49.70
36652;DHT22;53334;51.976;20.144;2023-07-13T05:16:26;26.80;49.70
36652;DHT22;53334;51.976;20.144;2023-07-13T05:19:00;26.80;49.70
36652;DHT22;53334;51.976;20.144;2023-07-13T05:21:33;26.80;49.70
36652;DHT22;53334;51.976;20.144;2023-07-13T05:24:06;26.80;49.70
36652;DHT22;53334;51.976;20.144;2023-07-13T05:26:54;26.80;49.80
36652;DHT22;53334;51.976;20.144;2023-07-13T05:29:29;26.70;49.70
36652;DHT22;53334;51.976;20.144;2023-07-13T05:32:03;26.80;49.80
36652;DHT22;53334;51.976;20.144;2023-07-13T05:34:36;26.80;49.80
36652;DHT22;53334;51.976;20.144;2023-07-13T05:37:10;26.80;49.80
36652;DHT22;53334;51.976;20.144;2023-07-13T05:39:43;26.80;49.80
36652;DHT22;53334;51.976;20.144;2023-07-13T05:42:17;26.80;49.80
36652;DHT22;53334;51.976;20.144;2023-07-13T05:44:52;26.80;49.80
36652;DHT22;53334;51.976;20.144;2023-07-13T05:47:25;26.80;49.80
36652;DHT22;53334;51.976;20.144;2023-07-13T05:49:58;26.80;50.40
36652;DHT22;53334;51.976;20.144;2023-07-13T05:52:33;26.80;49.80
36652;DHT22;53334;51.976;20.144;2023-07-13T05:55:07;26.80;49.80
36652;DHT22;53334;51.976;20.144;2023-07-13T05:57:40;26.80;49.80
36652;DHT22;53334;51.976;20.144;2023-07-13T06:00:16;26.80;49.80
36652;DHT22;53334;51.976;20.144;2023-07-13T06:02:49;26.80;49.80
36652;DHT22;53334;51.976;20.144;2023-07-13T06:05:23;26.80;49.80
36652;DHT22;53334;51.976;20.144;2023-07-13T06:07:56;26.80;49.80
36652;DHT22;53334;51.976;20.144;2023-07-13T06:10:32;26.80;49.80
36652;DHT22;53334;51.976;20.144;2023-07-13T06:13:05;26.80;49.80
36652;DHT22;53334;51.976;20.144;2023-07-13T06:15:40;26.80;49.80
36652;DHT22;53334;51.976;20.144;2023-07-13T06:18:13;26.80;49.80
36652;DHT22;53334;51.976;20.144;2023-07-13T06:20:47;26.70;49.80
36652;DHT22;53334;51.976;20.144;2023-07-13T06:23:20;26.70;49.80
36652;DHT22;53334;51.976;20.144;2023-07-13T06:25:53;26.80;49.80
36652;DHT22;53334;51.976;20.144;2023-07-13T06:28:28;26.80;49.80
36652;DHT22;53334;51.976;20.144;2023-07-13T06:31:05;26.80;49.80
36652;DHT22;53334;51.976;20.144;2023-07-13T06:33:39;26.80;49.80
36652;DHT22;53334;51.976;20.144;2023-07-13T06:36:12;26.80;49.80
36652;DHT22;53334;51.976;20.144;2023-07-13T06:38:46;26.80;49.80
36652;DHT22;53334;51.976;20.144;2023-07-13T06:41:20;26.80;49.80
36652;DHT22;53334;51.976;20.144;2023-07-13T06:43:54;26.80;49.80
36652;DHT22;53334;51.976;20.144;2023-07-13T06:46:29;26.80;49.80
36652;DHT22;53334;51.976;20.144;2023-07-13T06:49:03;26.80;49.80
36652;DHT22;53334;51.976;20.144;2023-07-13T06:51:37;26.80;49.80
36652;DHT22;53334;51.976;20.144;2023-07-13T06:54:10;26.80;49.80
36652;DHT22;53334;51.976;20.144;2023-07-13T06:56:44;26.80;49.80
36652;DHT22;53334;51.976;20.144;2023-07-13T06:59:18;26.80;49.80
36652;DHT22;53334;51.976;20.144;2023-07-13T07:01:53;26.80;49.80
36652;DHT22;53334;51.976;20.144;2023-07-13T07:04:27;26.80;49.80
36652;DHT22;53334;51.976;20.144;2023-07-13T07:07:01;26.80;49.80
36652;DHT22;53334;51.976;20.144;2023-07-13T07:09:34;26.80;49.80
36652;DHT22;53334;51.976;20.144;2023-07-13T07:12:08;26.80;49.80
36652;DHT22;53334;51.976;20.144;2023-07-13T07:14:44;26.80;49.80
36652;DHT22;53334;51.976;20.144;2023-07-13T07:17:19;26.80;49.80
36652;DHT22;53334;51.976;20.144;2023-07-13T07:19:56;26.80;49.80
36652;DHT22;53334;51.976;20.144;2023-07-13T07:22:29;26.80;49.80
36652;DHT22;53334;51.976;20.144;2023-07-13T07:25:03;26.80;49.80
36652;DHT22;53334;51.976;20.144;2023-07-13T07:27:37;26.80;49.80
36652;DHT22;53334;51.976;20.144;2023-07-13T07:30:14;26.80;49.80
36652;DHT22;53334;51.976;20.144;2023-07-13T07:32:52;26.80;49.80
36652;DHT22;53334;51.976;20.144;2023-07-13T07:35:28;26.80;49.80
36652;DHT22;53334;51.976;20.144;2023-07-13T07:38:06;26.80;49.80
36652;DHT22;53334;51.976;20.144;2023-07-13T07:40:42;26.80;49.80
36652;DHT22;53334;51.976;20.144;2023-07-13T07:43:19;26.80;49.80
36652;DHT22;53334;51.976;20.144;2023-07-13T07:45:52;26.80;49.80
36652;DHT22;53334;51.976;20.144;2023-07-13T07:48:27;26.80;49.80
36652;DHT22;53334;51.976;20.144;2023-07-13T07:51:01;26.80;49.80
36652;DHT22;53334;51.976;20.144;2023-07-13T07:53:35;26.80;49.80
36652;DHT22;53334;51.976;20.144;2023-07-13T07:56:08;26.80;49.80
36652;DHT22;53334;51.976;20.144;2023-07-13T07:58:45;26.80;49.80
36652;DHT22;53334;51.976;20.144;2023-07-13T08:01:21;26.80;49.80
36652;DHT22;53334;51.976;20.144;2023-07-13T08:03:59;26.80;49.80
36652;DHT22;53334;51.976;20.144;2023-07-13T08:06:35;26.80;49.80
36652;DHT22;53334;51.976;20.144;2023-07-13T08:09:12;26.80;49.80
36652;DHT22;53334;51.976;20.144;2023-07-13T08:11:46;26.80;49.80
36652;DHT22;53334;51.976;20.144;2023-07-13T08:14:22;26.80;49.70
36652;DHT22;53334;51.976;20.144;2023-07-13T08:17:10;26.80;49.70
36652;DHT22;53334;51.976;20.144;2023-07-13T08:19:45;26.90;49.80
36652;DHT22;53334;51.976;20.144;2023-07-13T08:22:19;26.80;49.70
36652;DHT22;53334;51.976;20.144;2023-07-13T08:24:52;26.80;49.70
36652;DHT22;53334;51.976;20.144;2023-07-13T08:27:29;26.80;49.70
36652;DHT22;53334;51.976;20.144;2023-07-13T08:30:03;26.80;49.70
36652;DHT22;53334;51.976;20.144;2023-07-13T08:32:38;26.90;49.80
36652;DHT22;53334;51.976;20.144;2023-07-13T08:35:13;26.90;49.80
36652;DHT22;53334;51.976;20.144;2023-07-13T08:37:48;26.90;49.80
36652;DHT22;53334;51.976;20.144;2023-07-13T08:40:25;26.80;49.70
36652;DHT22;53334;51.976;20.144;2023-07-13T08:42:59;26.90;49.70
36652;DHT22;53334;51.976;20.144;2023-07-13T08:45:40;26.80;49.70
36652;DHT22;53334;51.976;20.144;2023-07-13T08:48:20;26.90;49.70
36652;DHT22;53334;51.976;20.144;2023-07-13T08:50:58;26.90;49.70
36652;DHT22;53334;51.976;20.144;2023-07-13T08:53:36;26.90;49.70
36652;DHT22;53334;51.976;20.144;2023-07-13T08:56:16;26.90;49.70
36652;DHT22;53334;51.976;20.144;2023-07-13T08:58:58;26.90;49.70
36652;DHT22;53334;51.976;20.144;2023-07-13T09:01:45;26.90;49.70
36652;DHT22;53334;51.976;20.144;2023-07-13T09:04:23;26.90;49.70
36652;DHT22;53334;51.976;20.144;2023-07-13T09:07:05;26.90;49.70
36652;DHT22;53334;51.976;20.144;2023-07-13T09:09:49;26.90;49.70
36652;DHT22;53334;51.976;20.144;2023-07-13T09:12:30;26.90;49.60
36652;DHT22;53334;51.976;20.144;2023-07-13T09:15:14;26.90;49.60
36652;DHT22;53334;51.976;20.144;2023-07-13T09:18:02;26.90;49.60
36652;DHT22;53334;51.976;20.144;2023-07-13T09:20:42;26.90;49.60
36652;DHT22;53334;51.976;20.144;2023-07-13T09:23:22;26.90;49.60
36652;DHT22;53334;51.976;20.144;2023-07-13T09:26:01;26.90;49.60
36652;DHT22;53334;51.976;20.144;2023-07-13T09:28:39;26.90;49.60
36652;DHT22;53334;51.976;20.144;2023-07-13T09:31:15;26.90;49.60
36652;DHT22;53334;51.976;20.144;2023-07-13T09:33:49;26.90;49.60
36652;DHT22;53334;51.976;20.144;2023-07-13T09:36:25;26.90;49.60
36652;DHT22;53334;51.976;20.144;2023-07-13T09:39:04;26.90;49.60
36652;DHT22;53334;51.976;20.144;2023-07-13T09:41:45;26.90;49.70
36652;DHT22;53334;51.976;20.144;2023-07-13T09:44:28;26.90;49.60
36652;DHT22;53334;51.976;20.144;2023-07-13T09:47:12;27.00;49.70
36652;DHT22;53334;51.976;20.144;2023-07-13T09:49:54;26.90;49.70
36652;DHT22;53334;51.976;20.144;2023-07-13T09:52:42;26.90;49.60
36652;DHT22;53334;51.976;20.144;2023-07-13T09:55:30;26.90;49.70
36652;DHT22;53334;51.976;20.144;2023-07-13T09:58:11;26.90;49.60
36652;DHT22;53334;51.976;20.144;2023-07-13T10:00:54;26.90;49.70
36652;DHT22;53334;51.976;20.144;2023-07-13T10:03:30;26.90;49.70
36652;DHT22;53334;51.976;20.144;2023-07-13T10:06:13;26.90;49.70
36652;DHT22;53334;51.976;20.144;2023-07-13T10:08:47;26.90;49.70
36652;DHT22;53334;51.976;20.144;2023-07-13T10:11:24;26.90;49.70
36652;DHT22;53334;51.976;20.144;2023-07-13T10:14:00;26.90;49.70
36652;DHT22;53334;51.976;20.144;2023-07-13T10:16:35;26.90;49.70
36652;DHT22;53334;51.976;20.144;2023-07-13T10:19:12;26.90;49.70
36652;DHT22;53334;51.976;20.144;2023-07-13T10:21:52;26.90;49.80
36652;DHT22;53334;51.976;20.144;2023-07-13T10:24:30;26.90;49.80
36652;DHT22;53334;51.976;20.144;2023-07-13T10:27:15;26.90;49.80
36652;DHT22;53334;51.976;20.144;2023-07-13T10:29:52;26.90;49.80
36652;DHT22;53334;51.976;20.144;2023-07-13T10:32:26;26.90;49.80
36652;DHT22;53334;51.976;20.144;2023-07-13T10:35:00;27.00;49.90
36652;DHT22;53334;51.976;20.144;2023-07-13T10:37:41;26.90;49.70
36652;DHT22;53334;51.976;20.144;2023-07-13T10:40:19;27.00;49.80
36652;DHT22;53334;51.976;20.144;2023-07-13T10:42:57;27.00;49.80
36652;DHT22;53334;51.976;20.144;2023-07-13T10:45:34;27.00;49.80
36652;DHT22;53334;51.976;20.144;2023-07-13T10:48:10;27.00;49.80
36652;DHT22;53334;51.976;20.144;2023-07-13T10:50:49;26.90;49.70
36652;DHT22;53334;51.976;20.144;2023-07-13T10:53:29;26.90;49.70
36652;DHT22;53334;51.976;20.144;2023-07-13T10:56:04;27.00;49.80
36652;DHT22;53334;51.976;20.144;2023-07-13T10:58:42;27.00;49.90
36652;DHT22;53334;51.976;20.144;2023-07-13T11:01:26;27.00;49.90
36652;DHT22;53334;51.976;20.144;2023-07-13T11:04:16;27.00;49.80
36652;DHT22;53334;51.976;20.144;2023-07-13T11:06:57;27.00;49.80
36652;DHT22;53334;51.976;20.144;2023-07-13T11:09:41;26.90;49.80
36652;DHT22;53334;51.976;20.144;2023-07-13T11:15:31;27.00;49.90
36652;DHT22;53334;51.976;20.144;2023-07-13T11:18:20;27.00;49.90
36652;DHT22;53334;51.976;20.144;2023-07-13T11:21:13;27.00;49.90
36652;DHT22;53334;51.976;20.144;2023-07-13T11:24:05;27.00;49.90
36652;DHT22;53334;51.976;20.144;2023-07-13T11:26:52;27.00;49.90
36652;DHT22;53334;51.976;20.144;2023-07-13T11:29:36;27.00;49.90
36652;DHT22;53334;51.976;20.144;2023-07-13T11:32:25;27.00;49.90
36652;DHT22;53334;51.976;20.144;2023-07-13T11:34:59;27.00;50.00
36652;DHT22;53334;51.976;20.144;2023-07-13T11:37:32;27.00;50.00
36652;DHT22;53334;51.976;20.144;2023-07-13T11:40:11;27.00;50.00
36652;DHT22;53334;51.976;20.144;2023-07-13T11:42:45;27.00;50.00
36652;DHT22;53334;51.976;20.144;2023-07-13T11:45:20;27.00;50.00
36652;DHT22;53334;51.976;20.144;2023-07-13T11:48:21;27.00;50.00
36652;DHT22;53334;51.976;20.144;2023-07-13T11:50:58;26.90;49.90
36652;DHT22;53334;51.976;20.144;2023-07-13T11:53:39;27.00;50.00
36652;DHT22;53334;51.976;20.144;2023-07-13T11:56:13;26.90;50.00
36652;DHT22;53334;51.976;20.144;2023-07-13T11:58:49;27.00;50.00
36652;DHT22;53334;51.976;20.144;2023-07-13T12:01:26;27.00;50.10
36652;DHT22;53334;51.976;20.144;2023-07-13T12:04:05;27.00;50.00
36652;DHT22;53334;51.976;20.144;2023-07-13T12:06:40;27.00;50.00
36652;DHT22;53334;51.976;20.144;2023-07-13T12:09:15;26.90;50.00
36652;DHT22;53334;51.976;20.144;2023-07-13T12:11:48;26.90;50.00
36652;DHT22;53334;51.976;20.144;2023-07-13T12:14:22;27.00;50.00
36652;DHT22;53334;51.976;20.144;2023-07-13T12:16:57;27.00;50.00
36652;DHT22;53334;51.976;20.144;2023-07-13T12:19:32;27.00;50.00
36652;DHT22;53334;51.976;20.144;2023-07-13T12:22:09;26.90;50.00
36652;DHT22;53334;51.976;20.144;2023-07-13T12:24:45;27.00;50.10
36652;DHT22;53334;51.976;20.144;2023-07-13T12:27:21;27.00;50.10
36652;DHT22;53334;51.976;20.144;2023-07-13T12:29:59;27.00;50.10
36652;DHT22;53334;51.976;20.144;2023-07-13T12:32:33;27.00;50.10
36652;DHT22;53334;51.976;20.144;2023-07-13T12:35:17;27.00;50.10
36652;DHT22;53334;51.976;20.144;2023-07-13T12:37:54;27.00;50.00
36652;DHT22;53334;51.976;20.144;2023-07-13T12:40:34;27.00;50.00
36652;DHT22;53334;51.976;20.144;2023-07-13T12:43:12;27.00;50.10
36652;DHT22;53334;51.976;20.144;2023-07-13T12:46:04;27.00;50.00
36652;DHT22;53334;51.976;20.144;2023-07-13T12:48:39;27.00;50.10
36652;DHT22;53334;51.976;20.144;2023-07-13T12:51:24;27.00;50.00
36652;DHT22;53334;51.976;20.144;2023-07-13T12:54:06;27.00;50.00
36652;DHT22;53334;51.976;20.144;2023-07-13T12:56:44;27.00;50.10
36652;DHT22;53334;51.976;20.144;2023-07-13T12:59:20;27.00;50.10
36652;DHT22;53334;51.976;20.144;2023-07-13T13:01:54;27.00;50.10
36652;DHT22;53334;51.976;20.144;2023-07-13T13:04:27;27.00;50.10
36652;DHT22;53334;51.976;20.144;2023-07-13T13:07:05;27.00;50.10
36652;DHT22;53334;51.976;20.144;2023-07-13T13:09:41;27.00;50.10
36652;DHT22;53334;51.976;20.144;2023-07-13T13:12:15;26.90;50.00
36652;DHT22;53334;51.976;20.144;2023-07-13T13:14:49;27.00;50.10
36652;DHT22;53334;51.976;20.144;2023-07-13T13:17:27;27.00;50.10
36652;DHT22;53334;51.976;20.144;2023-07-13T13:20:11;27.00;50.10
36652;DHT22;53334;51.976;20.144;2023-07-13T13:22:48;27.00;50.10
36652;DHT22;53334;51.976;20.144;2023-07-13T13:25:21;27.00;50.00
36652;DHT22;53334;51.976;20.144;2023-07-13T13:27:55;27.00;50.10
36652;DHT22;53334;51.976;20.144;2023-07-13T13:30:28;27.00;50.10
36652;DHT22;53334;51.976;20.144;2023-07-13T13:33:02;27.00;50.00
36652;DHT22;53334;51.976;20.144;2023-07-13T13:35:35;27.00;50.10
36652;DHT22;53334;51.976;20.144;2023-07-13T13:38:12;27.00;50.10
36652;DHT22;53334;51.976;20.144;2023-07-13T13:40:46;27.00;50.60
36652;DHT22;53334;51.976;20.144;2023-07-13T13:43:23;27.00;50.10
36652;DHT22;53334;51.976;20.144;2023-07-13T13:45:59;27.00;50.10
36652;DHT22;53334;51.976;20.144;2023-07-13T13:48:35;27.00;50.10
36652;DHT22;53334;51.976;20.144;2023-07-13T13:51:15;27.00;50.00
36652;DHT22;53334;51.976;20.144;2023-07-13T13:53:51;27.00;50.10
36652;DHT22;53334;51.976;20.144;2023-07-13T13:56:25;27.00;50.10
36652;DHT22;53334;51.976;20.144;2023-07-13T13:58:59;26.90;50.00
36652;DHT22;53334;51.976;20.144;2023-07-13T14:01:33;27.00;50.00
36652;DHT22;53334;51.976;20.144;2023-07-13T14:04:06;27.00;50.00
36652;DHT22;53334;51.976;20.144;2023-07-13T14:06:42;27.00;50.00
36652;DHT22;53334;51.976;20.144;2023-07-13T14:09:20;27.00;50.00
36652;DHT22;53334;51.976;20.144;2023-07-13T14:11:53;27.00;50.00
36652;DHT22;53334;51.976;20.144;2023-07-13T14:14:28;27.00;50.00
36652;DHT22;53334;51.976;20.144;2023-07-13T14:17:02;27.00;50.00
36652;DHT22;53334;51.976;20.144;2023-07-13T14:19:36;27.00;50.00
36652;DHT22;53334;51.976;20.144;2023-07-13T14:22:09;27.00;50.00
36652;DHT22;53334;51.976;20.144;2023-07-13T14:24:44;27.00;50.00
36652;DHT22;53334;51.976;20.144;2023-07-13T14:27:17;27.00;50.10
36652;DHT22;53334;51.976;20.144;2023-07-13T14:29:51;27.00;50.30
36652;DHT22;53334;51.976;20.144;2023-07-13T14:32:24;27.00;50.50
36652;DHT22;53334;51.976;20.144;2023-07-13T14:34:57;27.00;50.50
36652;DHT22;53334;51.976;20.144;2023-07-13T14:37:31;27.00;50.60
36652;DHT22;53334;51.976;20.144;2023-07-13T14:40:13;27.00;50.60
36652;DHT22;53334;51.976;20.144;2023-07-13T14:42:46;27.00;50.80
36652;DHT22;53334;51.976;20.144;2023-07-13T14:45:20;27.00;50.80
36652;DHT22;53334;51.976;20.144;2023-07-13T14:47:54;27.00;50.90
36652;DHT22;53334;51.976;20.144;2023-07-13T14:50:31;27.00;51.20
36652;DHT22;53334;51.976;20.144;2023-07-13T14:53:10;27.00;51.30
36652;DHT22;53334;51.976;20.144;2023-07-13T14:55:45;27.00;51.60
36652;DHT22;53334;51.976;20.144;2023-07-13T14:58:19;27.00;52.00
36652;DHT22;53334;51.976;20.144;2023-07-13T15:00:52;27.00;52.00
36652;DHT22;53334;51.976;20.144;2023-07-13T15:03:30;27.00;52.10
36652;DHT22;53334;51.976;20.144;2023-07-13T15:06:03;27.00;52.30
36652;DHT22;53334;51.976;20.144;2023-07-13T15:08:37;27.00;52.80
36652;DHT22;53334;51.976;20.144;2023-07-13T15:11:12;27.10;53.10
36652;DHT22;53334;51.976;20.144;2023-07-13T15:13:46;27.10;53.10
36652;DHT22;53334;51.976;20.144;2023-07-13T15:16:22;27.10;53.40
36652;DHT22;53334;51.976;20.144;2023-07-13T15:18:56;27.10;53.70
36652;DHT22;53334;51.976;20.144;2023-07-13T15:21:31;27.10;53.80
36652;DHT22;53334;51.976;20.144;2023-07-13T15:24:08;27.10;54.00
36652;DHT22;53334;51.976;20.144;2023-07-13T15:26:43;27.10;54.20
36652;DHT22;53334;51.976;20.144;2023-07-13T15:29:17;27.10;54.40
36652;DHT22;53334;51.976;20.144;2023-07-13T15:31:51;27.10;54.40
36652;DHT22;53334;51.976;20.144;2023-07-13T15:34:26;27.10;54.60
36652;DHT22;53334;51.976;20.144;2023-07-13T15:36:59;27.10;54.70
36652;DHT22;53334;51.976;20.144;2023-07-13T15:39:33;27.10;54.60
36652;DHT22;53334;51.976;20.144;2023-07-13T15:42:14;27.10;54.60
36652;DHT22;53334;51.976;20.144;2023-07-13T15:44:48;27.10;54.80
36652;DHT22;53334;51.976;20.144;2023-07-13T15:47:21;27.10;54.70
36652;DHT22;53334;51.976;20.144;2023-07-13T15:49:55;27.10;55.30
36652;DHT22;53334;51.976;20.144;2023-07-13T15:52:31;27.10;54.70
36652;DHT22;53334;51.976;20.144;2023-07-13T15:55:07;27.10;54.80
36652;DHT22;53334;51.976;20.144;2023-07-13T15:57:46;27.20;54.90
36652;DHT22;53334;51.976;20.144;2023-07-13T16:00:22;27.20;55.10
36652;DHT22;53334;51.976;20.144;2023-07-13T16:02:55;27.10;55.40
36652;DHT22;53334;51.976;20.144;2023-07-13T16:05:29;27.20;55.40
36652;DHT22;53334;51.976;20.144;2023-07-13T16:08:03;27.20;55.50
36652;DHT22;53334;51.976;20.144;2023-07-13T16:10:38;27.20;55.50
36652;DHT22;53334;51.976;20.144;2023-07-13T16:13:16;27.20;55.50